createdAt,value
2019-05-25T00:00:55.632Z,7.15
2019-05-25T00:03:26.979Z,6.92
2019-05-25T00:05:58.360Z,6.75
2019-05-25T00:08:29.713Z,6.80
2019-05-25T00:11:01.180Z,7.55
2019-05-25T00:13:32.538Z,7.58
2019-05-25T00:16:04.002Z,7.25
2019-05-25T00:18:35.368Z,7.67
2019-05-25T00:21:06.638Z,7.62
2019-05-25T00:23:38.023Z,7.20
2019-05-25T00:26:09.522Z,8.45
2019-05-25T00:28:40.914Z,9.20
2019-05-25T00:31:12.364Z,9.00
2019-05-25T00:33:43.803Z,9.73
2019-05-25T00:36:15.328Z,10.53
2019-05-25T00:38:46.773Z,10.88
2019-05-25T00:41:18.073Z,10.35
2019-05-25T00:43:49.497Z,10.13
2019-05-25T00:46:20.825Z,9.48
2019-05-25T00:48:52.215Z,11.22
2019-05-25T00:51:23.578Z,10.53
2019-05-25T00:53:54.948Z,8.75
2019-05-25T00:56:26.391Z,9.13
2019-05-25T00:58:57.847Z,8.10
2019-05-25T01:01:29.201Z,8.23
2019-05-25T01:04:00.487Z,7.78
2019-05-25T01:06:31.848Z,8.00
2019-05-25T01:09:03.667Z,8.18
2019-05-25T01:11:35.163Z,7.10
2019-05-25T01:14:07.088Z,6.97
2019-05-25T01:16:38.521Z,7.37
2019-05-25T01:19:09.802Z,7.60
2019-05-25T01:21:41.139Z,6.97
2019-05-25T01:24:12.733Z,8.23
2019-05-25T01:26:44.068Z,7.03
2019-05-25T01:29:15.508Z,6.97
2019-05-25T01:31:47.054Z,7.47
2019-05-25T01:34:18.425Z,7.00
2019-05-25T01:36:49.921Z,7.85
2019-05-25T01:39:21.354Z,8.18
2019-05-25T01:41:52.725Z,8.63
2019-05-25T01:44:24.055Z,9.18
2019-05-25T01:46:55.416Z,8.65
2019-05-25T01:49:26.663Z,8.98
2019-05-25T01:51:58.004Z,9.53
2019-05-25T01:54:29.295Z,9.20
2019-05-25T01:57:00.576Z,8.95
2019-05-25T01:59:31.978Z,9.88
2019-05-25T02:02:04.744Z,9.08
2019-05-25T02:04:36.012Z,9.13
2019-05-25T02:07:07.368Z,10.50
2019-05-25T02:09:38.678Z,9.90
2019-05-25T02:12:10.030Z,8.60
2019-05-25T02:14:41.309Z,9.15
2019-05-25T02:17:12.861Z,8.40
2019-05-25T02:19:44.261Z,7.85
2019-05-25T02:22:15.696Z,8.23
2019-05-25T02:24:46.993Z,9.43
2019-05-25T02:27:18.274Z,10.05
2019-05-25T02:29:49.564Z,9.20
2019-05-25T02:32:20.900Z,9.10
2019-05-25T02:34:52.401Z,8.10
2019-05-25T02:37:23.818Z,8.35
2019-05-25T02:39:55.152Z,8.20
2019-05-25T02:42:26.488Z,8.00
2019-05-25T02:44:57.847Z,7.30
2019-05-25T02:47:29.164Z,7.97
2019-05-25T02:50:00.432Z,8.70
2019-05-25T02:52:31.807Z,9.83
2019-05-25T02:55:03.239Z,9.75
2019-05-25T02:57:34.577Z,10.72
2019-05-25T03:00:07.937Z,8.80
2019-05-25T03:02:40.910Z,8.90
2019-05-25T03:05:15.382Z,8.40
2019-05-25T03:07:47.488Z,8.68
2019-05-25T03:10:18.931Z,8.68
2019-05-25T03:12:50.358Z,13.60
2019-05-25T03:15:22.013Z,9.90
2019-05-25T03:17:53.429Z,10.30
2019-05-25T03:20:25.371Z,9.38
2019-05-25T03:22:57.726Z,9.35
2019-05-25T03:25:29.068Z,10.35
2019-05-25T03:28:00.482Z,12.00
2019-05-25T03:30:37.881Z,10.28
2019-05-25T03:33:09.373Z,10.48
2019-05-25T03:35:40.719Z,10.30
2019-05-25T03:38:12.238Z,11.43
2019-05-25T03:40:43.632Z,10.98
2019-05-25T03:43:14.950Z,10.65
2019-05-25T03:45:46.218Z,11.55
2019-05-25T03:48:17.550Z,10.28
2019-05-25T03:50:48.923Z,12.28
2019-05-25T03:53:20.392Z,12.13
2019-05-25T03:56:04.779Z,10.90
2019-05-25T03:58:24.785Z,12.93
2019-05-25T04:00:56.214Z,10.55
2019-05-25T04:03:27.639Z,8.30
2019-05-25T04:05:58.966Z,14.87
2019-05-25T04:08:30.251Z,10.95
2019-05-25T04:11:01.538Z,10.88
2019-05-25T04:13:32.925Z,11.22
2019-05-25T04:16:04.477Z,11.60
2019-05-25T04:18:35.792Z,12.15
2019-05-25T04:21:07.204Z,9.33
2019-05-25T04:23:38.576Z,11.15
2019-05-25T04:26:22.131Z,8.30
2019-05-25T04:28:43.055Z,10.32
2019-05-25T04:31:15.503Z,10.78
2019-05-25T04:33:46.833Z,10.80
2019-05-25T04:36:18.116Z,11.70
2019-05-25T04:38:49.591Z,10.95
2019-05-25T04:41:20.961Z,12.80
2019-05-25T04:43:52.424Z,10.53
2019-05-25T04:46:23.852Z,10.40
2019-05-25T04:48:55.121Z,11.08
2019-05-25T04:51:26.501Z,9.98
2019-05-25T04:53:57.969Z,13.58
2019-05-25T04:56:38.846Z,10.68
2019-05-25T04:59:02.361Z,11.05
2019-05-25T05:01:33.894Z,11.38
2019-05-25T05:04:05.395Z,11.15
2019-05-25T05:06:36.685Z,10.65
2019-05-25T05:09:09.283Z,12.05
2019-05-25T05:11:40.631Z,10.65
2019-05-25T05:14:12.052Z,10.53
2019-05-25T05:16:43.332Z,10.78
2019-05-25T05:19:14.655Z,10.38
2019-05-25T05:21:46.071Z,10.70
2019-05-25T05:24:17.380Z,10.95
2019-05-25T05:26:55.785Z,11.45
2019-05-25T05:29:21.724Z,10.08
2019-05-25T05:31:53.341Z,11.75
2019-05-25T05:34:24.771Z,11.80
2019-05-25T05:36:56.416Z,10.18
2019-05-25T05:39:28.830Z,9.15
2019-05-25T05:42:01.566Z,9.88
2019-05-25T05:44:33.315Z,10.05
2019-05-25T05:47:10.328Z,11.33
2019-05-25T05:49:41.346Z,9.75
2019-05-25T05:52:14.842Z,9.68
2019-05-25T05:54:47.645Z,9.10
2019-05-25T05:57:19.126Z,9.95
2019-05-25T05:59:50.415Z,10.13
2019-05-25T06:02:21.941Z,9.90
2019-05-25T06:04:53.281Z,9.40
2019-05-25T06:07:27.285Z,8.83
2019-05-25T06:09:57.537Z,10.35
2019-05-25T06:12:29.021Z,8.50
2019-05-25T06:15:00.372Z,8.78
2019-05-25T06:17:36.635Z,10.58
2019-05-25T06:20:08.807Z,10.38
2019-05-25T06:22:40.238Z,8.20
2019-05-25T06:25:14.359Z,8.95
2019-05-25T06:27:45.806Z,9.23
2019-05-25T06:30:18.727Z,10.13
2019-05-25T06:32:50.326Z,9.28
2019-05-25T06:35:21.796Z,10.70
2019-05-25T06:37:53.296Z,9.80
2019-05-25T06:40:24.897Z,9.35
2019-05-25T06:42:56.254Z,9.70
2019-05-25T06:45:27.760Z,9.95
2019-05-25T06:47:59.183Z,10.25
2019-05-25T06:50:30.734Z,12.75
2019-05-25T06:53:02.128Z,12.07
2019-05-25T06:55:33.562Z,11.10
2019-05-25T06:58:05.307Z,10.05
2019-05-25T07:00:36.748Z,9.60
2019-05-25T07:03:08.298Z,9.40
2019-05-25T07:05:39.569Z,9.40
2019-05-25T07:08:10.929Z,12.23
2019-05-25T07:10:42.280Z,9.10
2019-05-25T07:13:13.706Z,8.93
2019-05-25T07:15:45.057Z,9.90
2019-05-25T07:18:16.511Z,9.68
2019-05-25T07:20:48.003Z,18.55
2019-05-25T07:23:19.512Z,14.33
2019-05-25T07:25:51.037Z,9.63
2019-05-25T07:28:22.679Z,19.67
2019-05-25T07:30:54.233Z,9.10
2019-05-25T07:33:26.044Z,8.80
2019-05-25T07:35:57.419Z,13.50
2019-05-25T07:38:29.130Z,9.33
2019-05-25T07:41:00.823Z,8.65
2019-05-25T07:43:32.268Z,9.48
2019-05-25T07:46:04.387Z,9.10
2019-05-25T07:48:36.661Z,9.55
2019-05-25T07:51:11.370Z,9.78
2019-05-25T07:53:43.103Z,9.33
2019-05-25T07:56:15.464Z,9.18
2019-05-25T07:58:47.030Z,9.03
2019-05-25T08:01:18.785Z,12.25
2019-05-25T08:03:52.757Z,10.72
2019-05-25T08:06:24.288Z,9.30
2019-05-25T08:08:58.619Z,10.30
2019-05-25T08:11:32.587Z,10.78
2019-05-25T08:14:04.016Z,9.35
2019-05-25T08:16:35.459Z,8.88
2019-05-25T08:19:08.023Z,12.25
2019-05-25T08:21:39.537Z,10.65
2019-05-25T08:24:11.417Z,13.20
2019-05-25T08:26:54.276Z,9.60
2019-05-25T08:29:25.839Z,25.45
2019-05-25T08:31:57.437Z,12.50
2019-05-25T08:34:28.832Z,10.43
2019-05-25T08:37:00.323Z,12.40
2019-05-25T08:39:31.651Z,8.83
2019-05-25T08:42:04.785Z,10.08
2019-05-25T08:44:36.670Z,10.63
2019-05-25T08:47:08.674Z,10.32
2019-05-25T08:49:40.364Z,14.85
2019-05-25T08:52:12.747Z,12.78
2019-05-25T08:54:44.280Z,10.30
2019-05-25T08:57:18.585Z,11.03
2019-05-25T08:59:49.209Z,9.68
2019-05-25T09:02:20.692Z,11.08
2019-05-25T09:04:52.230Z,9.88
2019-05-25T09:07:23.580Z,11.38
2019-05-25T09:09:54.970Z,8.75
2019-05-25T09:12:26.334Z,12.28
2019-05-25T09:14:57.751Z,9.20
2019-05-25T09:17:29.175Z,11.20
2019-05-25T09:20:00.601Z,12.93
2019-05-25T09:22:32.014Z,10.88
2019-05-25T09:25:03.910Z,10.38
2019-05-25T09:27:35.250Z,12.85
2019-05-25T09:30:09.345Z,10.08
2019-05-25T09:32:40.687Z,11.53
2019-05-25T09:35:12.564Z,10.25
2019-05-25T09:37:44.025Z,10.60
2019-05-25T09:40:15.780Z,8.95
2019-05-25T09:42:47.374Z,10.93
2019-05-25T09:45:19.853Z,10.10
2019-05-25T09:47:51.364Z,11.48
2019-05-25T09:50:22.908Z,9.93
2019-05-25T09:52:55.994Z,10.68
2019-05-25T09:55:27.604Z,10.68
2019-05-25T09:57:59.026Z,11.00
2019-05-25T10:00:31.276Z,10.68
2019-05-25T10:03:02.771Z,12.37
2019-05-25T10:05:35.394Z,11.45
2019-05-25T10:08:06.814Z,9.68
2019-05-25T10:10:40.330Z,12.25
2019-05-25T10:13:20.111Z,10.03
2019-05-25T10:20:09.698Z,9.98
2019-05-25T10:21:59.541Z,10.45
2019-05-25T10:24:38.748Z,13.93
2019-05-25T10:27:25.857Z,10.32
2019-05-25T10:29:53.298Z,11.55
2019-05-25T10:32:35.511Z,11.40
2019-05-25T10:35:08.466Z,11.40
2019-05-25T10:37:40.064Z,9.53
2019-05-25T10:40:11.686Z,15.05
2019-05-25T10:42:43.237Z,14.28
2019-05-25T10:45:22.255Z,13.48
2019-05-25T10:47:55.433Z,16.50
2019-05-25T10:50:30.487Z,11.45
2019-05-25T10:53:04.313Z,11.00
2019-05-25T10:55:36.049Z,10.08
2019-05-25T10:58:08.219Z,9.90
2019-05-25T11:00:42.162Z,10.43
2019-05-25T11:03:18.411Z,9.15
2019-05-25T11:05:55.971Z,10.53
2019-05-25T11:08:29.548Z,12.47
2019-05-25T11:11:01.135Z,10.68
2019-05-25T11:13:33.997Z,9.85
2019-05-25T11:16:05.657Z,9.28
2019-05-25T11:18:37.006Z,12.43
2019-05-25T11:21:14.278Z,11.97
2019-05-25T11:23:56.076Z,10.50
2019-05-25T11:26:27.428Z,9.78
2019-05-25T11:28:58.927Z,9.85
2019-05-25T11:31:33.357Z,10.38
2019-05-25T11:34:13.405Z,11.05
2019-05-25T11:36:47.385Z,16.32
2019-05-25T11:39:52.172Z,13.65
2019-05-25T11:42:27.433Z,9.60
2019-05-25T11:44:59.909Z,10.85
2019-05-25T11:47:37.356Z,13.85
2019-05-25T11:50:15.171Z,13.30
2019-05-25T11:52:55.368Z,11.33
2019-05-25T11:55:27.028Z,10.75
2019-05-25T11:58:08.333Z,9.08
2019-05-25T12:00:45.060Z,8.78
2019-05-25T12:03:20.943Z,10.85
2019-05-25T12:06:13.913Z,10.95
2019-05-25T12:08:45.393Z,11.70
2019-05-25T12:11:16.786Z,9.80
2019-05-25T12:13:48.529Z,12.18
2019-05-25T12:16:19.938Z,11.80
2019-05-25T12:18:51.439Z,12.30
2019-05-25T12:21:24.539Z,11.80
2019-05-25T12:23:58.050Z,9.08
2019-05-25T12:26:37.168Z,10.55
2019-05-25T12:29:13.383Z,8.58
2019-05-25T12:31:44.909Z,9.00
2019-05-25T12:34:16.711Z,8.48
2019-05-25T12:36:52.527Z,8.03
2019-05-25T12:39:26.735Z,8.78
2019-05-25T12:41:58.382Z,6.80
2019-05-25T12:44:48.428Z,8.53
2019-05-25T12:47:19.877Z,6.25
2019-05-25T12:49:51.410Z,6.45
2019-05-25T12:52:24.851Z,6.45
2019-05-25T12:54:57.878Z,7.80
2019-05-25T12:57:29.396Z,8.13
2019-05-25T13:00:14.704Z,5.05
2019-05-25T13:02:38.388Z,5.67
2019-05-25T13:05:34.181Z,3.62
2019-05-25T13:08:00.405Z,6.08
2019-05-25T13:10:37.041Z,7.53
2019-05-25T13:13:14.903Z,7.03
2019-05-25T13:15:51.232Z,4.45
2019-05-25T13:18:24.343Z,4.62
2019-05-25T13:20:56.415Z,4.80
2019-05-25T13:23:27.757Z,3.22
2019-05-25T13:25:59.146Z,2.75
2019-05-25T13:28:30.753Z,4.67
2019-05-25T13:31:11.299Z,2.72
2019-05-25T13:33:35.202Z,1.80
2019-05-25T13:36:06.657Z,3.75
2019-05-25T13:38:38.346Z,2.20
2019-05-25T13:41:11.813Z,2.20
2019-05-25T13:43:45.995Z,3.62
2019-05-25T13:46:46.980Z,2.50
2019-05-25T13:49:25.332Z,2.92
2019-05-25T13:52:19.562Z,1.87
2019-05-25T13:55:04.666Z,5.37
2019-05-25T13:57:37.796Z,2.70
2019-05-25T14:00:23.415Z,2.90
2019-05-25T14:02:59.469Z,3.58
2019-05-25T14:05:31.164Z,4.00
2019-05-25T14:08:12.132Z,1.98
2019-05-25T14:10:36.363Z,3.70
2019-05-25T14:13:09.845Z,4.00
2019-05-25T14:15:41.261Z,1.15
2019-05-25T14:18:12.947Z,2.70
2019-05-25T14:20:44.489Z,6.15
2019-05-25T14:23:17.134Z,1.22
2019-05-25T14:25:48.857Z,1.17
2019-05-25T14:28:22.168Z,2.90
2019-05-25T14:30:55.200Z,1.32
2019-05-25T14:33:26.897Z,6.12
2019-05-25T14:36:09.179Z,2.05
2019-05-25T14:38:40.856Z,1.90
2019-05-25T14:41:12.627Z,2.58
2019-05-25T14:43:44.037Z,2.55
2019-05-25T14:46:27.347Z,2.50
2019-05-25T14:48:58.927Z,1.02
2019-05-25T14:51:30.787Z,3.30
2019-05-25T14:54:02.493Z,2.10
2019-05-25T14:56:34.422Z,2.55
2019-05-25T14:59:06.415Z,2.00
2019-05-25T15:01:37.818Z,0.80
2019-05-25T15:04:09.397Z,6.78
2019-05-25T15:06:40.847Z,2.67
2019-05-25T15:09:13.957Z,1.87
2019-05-25T15:11:45.379Z,2.67
2019-05-25T15:14:16.868Z,1.42
2019-05-25T15:16:48.550Z,1.00
2019-05-25T15:19:20.204Z,3.50
2019-05-25T15:21:52.060Z,3.22
2019-05-25T15:24:23.600Z,1.10
2019-05-25T15:26:54.915Z,2.52
2019-05-25T15:29:26.708Z,5.00
2019-05-25T15:31:58.452Z,2.60
2019-05-25T15:34:33.365Z,4.42
2019-05-25T15:37:05.195Z,2.77
2019-05-25T15:39:36.540Z,3.55
2019-05-25T15:42:08.296Z,3.27
2019-05-25T15:44:42.451Z,4.58
2019-05-25T15:47:14.096Z,5.90
2019-05-25T15:49:45.504Z,2.95
2019-05-25T15:52:21.323Z,4.33
2019-05-25T15:54:57.661Z,2.98
2019-05-25T15:57:33.602Z,2.83
2019-05-25T16:00:14.004Z,2.65
2019-05-25T16:02:51.881Z,4.65
2019-05-25T16:05:25.360Z,2.30
2019-05-25T16:07:56.919Z,1.72
2019-05-25T16:10:28.399Z,2.75
2019-05-25T16:13:00.035Z,4.35
2019-05-25T16:15:31.478Z,2.58
2019-05-25T16:18:03.195Z,3.60
2019-05-25T16:20:34.527Z,1.70
2019-05-25T16:23:07.702Z,2.95
2019-05-25T16:25:39.121Z,4.33
2019-05-25T16:28:10.727Z,2.27
2019-05-25T16:30:42.158Z,2.50
2019-05-25T16:33:14.811Z,2.75
2019-05-25T16:35:46.477Z,2.50
2019-05-25T16:38:18.513Z,3.08
2019-05-25T16:40:49.854Z,2.02
2019-05-25T16:43:22.460Z,3.08
2019-05-25T16:45:56.896Z,2.75
2019-05-25T16:48:28.776Z,2.05
2019-05-25T16:51:00.164Z,2.85
2019-05-25T16:53:32.788Z,2.55
2019-05-25T16:56:04.441Z,2.27
2019-05-25T16:58:35.740Z,4.35
2019-05-25T17:01:07.118Z,3.25
2019-05-25T17:03:38.522Z,1.98
2019-05-25T17:06:10.112Z,2.02
2019-05-25T17:08:42.833Z,2.00
2019-05-25T17:11:14.234Z,2.35
2019-05-25T17:13:45.536Z,3.00
2019-05-25T17:16:17.216Z,2.05
2019-05-25T17:18:48.888Z,3.25
2019-05-25T17:21:20.546Z,3.98
2019-05-25T17:23:53.071Z,2.70
2019-05-25T17:26:24.532Z,3.90
2019-05-25T17:28:55.941Z,3.27
2019-05-25T17:31:27.301Z,3.33
2019-05-25T17:33:58.820Z,5.67
2019-05-25T17:36:30.391Z,2.87
2019-05-25T17:39:01.919Z,2.35
2019-05-25T17:41:34.287Z,2.05
2019-05-25T17:44:05.903Z,2.45
2019-05-25T17:46:37.422Z,2.10
2019-05-25T17:49:28.970Z,2.90
2019-05-25T17:52:01.983Z,4.03
2019-05-25T17:54:33.637Z,3.22
2019-05-25T17:57:06.219Z,2.70
2019-05-25T17:59:37.601Z,2.52
2019-05-25T18:02:09.010Z,4.30
2019-05-25T18:04:40.575Z,2.10
2019-05-25T18:07:12.938Z,2.52
2019-05-25T18:09:44.424Z,3.05
2019-05-25T18:12:15.964Z,3.15
2019-05-25T18:14:47.258Z,2.35
2019-05-25T18:17:19.124Z,2.45
2019-05-25T18:19:50.609Z,5.10
2019-05-25T18:22:22.259Z,3.25
2019-05-25T18:24:53.663Z,3.15
2019-05-25T18:27:25.251Z,3.60
2019-05-25T18:29:56.558Z,4.15
2019-05-25T18:32:27.856Z,3.83
2019-05-25T18:34:59.253Z,4.15
2019-05-25T18:37:30.655Z,5.03
2019-05-25T18:40:02.243Z,6.08
2019-05-25T18:42:33.732Z,4.15
2019-05-25T18:45:07.321Z,4.58
2019-05-25T18:47:38.878Z,3.58
2019-05-25T18:50:12.441Z,3.60
2019-05-25T18:52:45.985Z,4.17
2019-05-25T18:55:18.594Z,4.78
2019-05-25T18:57:53.065Z,5.47
2019-05-25T19:00:25.119Z,5.53
2019-05-25T19:02:56.916Z,4.60
2019-05-25T19:05:28.423Z,4.22
2019-05-25T19:08:00.135Z,5.30
2019-05-25T19:10:31.923Z,5.42
2019-05-25T19:13:03.431Z,4.78
2019-05-25T19:15:35.241Z,5.05
2019-05-25T19:18:07.133Z,4.90
2019-05-25T19:20:38.937Z,4.25
2019-05-25T19:23:10.702Z,4.72
2019-05-25T19:25:46.400Z,5.17
2019-05-25T19:28:19.739Z,4.53
2019-05-25T19:30:55.416Z,6.20
2019-05-25T19:33:29.638Z,4.55
2019-05-25T19:36:03.555Z,5.95
2019-05-25T19:38:36.702Z,6.40
2019-05-25T19:41:10.034Z,5.72
2019-05-25T19:43:41.932Z,5.22
2019-05-25T19:46:13.467Z,6.15
2019-05-25T19:48:44.943Z,6.28
2019-05-25T19:51:16.396Z,5.97
2019-05-25T19:53:47.783Z,7.00
2019-05-25T19:56:19.110Z,6.40
2019-05-25T19:58:50.519Z,6.42
2019-05-25T20:01:21.894Z,6.60
2019-05-25T20:03:57.191Z,6.80
2019-05-25T20:06:26.328Z,6.35
2019-05-25T20:08:57.713Z,5.80
2019-05-25T20:11:29.198Z,6.17
2019-05-25T20:14:00.616Z,6.20
2019-05-25T20:16:32.155Z,6.62
2019-05-25T20:19:03.703Z,6.60
2019-05-25T20:21:35.243Z,7.58
2019-05-25T20:24:06.692Z,7.90
2019-05-25T20:26:38.004Z,7.67
2019-05-25T20:29:09.437Z,7.03
2019-05-25T20:31:40.748Z,8.28
2019-05-25T20:34:12.139Z,7.78
2019-05-25T20:36:43.428Z,8.53
2019-05-25T20:39:15.759Z,8.90
2019-05-25T20:41:47.093Z,8.13
2019-05-25T20:44:18.614Z,8.23
2019-05-25T20:46:49.985Z,8.23
2019-05-25T20:49:21.281Z,8.45
2019-05-25T20:51:52.753Z,9.13
2019-05-25T20:54:24.061Z,9.00
2019-05-25T20:56:55.429Z,10.03
2019-05-25T20:59:26.728Z,9.60
2019-05-25T21:01:58.095Z,8.20
2019-05-25T21:04:29.455Z,9.45
2019-05-25T21:07:01.161Z,8.20
2019-05-25T21:09:32.979Z,7.83
2019-05-25T21:12:04.519Z,8.68
2019-05-25T21:14:35.974Z,8.48
2019-05-25T21:17:07.486Z,12.68
2019-05-25T21:19:38.829Z,9.60
2019-05-25T21:22:10.150Z,9.85
2019-05-25T21:24:41.415Z,9.53
2019-05-25T21:27:12.942Z,10.20
2019-05-25T21:29:44.401Z,10.58
2019-05-25T21:32:15.771Z,9.28
2019-05-25T21:34:47.132Z,8.30
2019-05-25T21:37:19.591Z,9.93
2019-05-25T21:39:51.739Z,9.85
2019-05-25T21:42:23.227Z,8.53
2019-05-25T21:44:54.642Z,9.13
2019-05-25T21:47:26.360Z,8.75
2019-05-25T21:49:57.810Z,8.78
2019-05-25T21:52:29.203Z,8.73
2019-05-25T21:55:01.609Z,8.78
2019-05-25T21:57:33.223Z,10.18
2019-05-25T22:00:11.808Z,9.33
2019-05-25T22:02:44.675Z,8.80
2019-05-25T22:05:17.064Z,8.33
2019-05-25T22:07:48.473Z,8.48
2019-05-25T22:10:19.943Z,8.33
2019-05-25T22:12:51.344Z,8.20
2019-05-25T22:15:22.836Z,8.25
2019-05-25T22:17:54.551Z,8.73
2019-05-25T22:20:26.023Z,9.00
2019-05-25T22:22:59.059Z,8.93
2019-05-25T22:25:30.513Z,9.43
2019-05-25T22:28:01.887Z,9.10
2019-05-25T22:30:33.375Z,9.10
2019-05-25T22:33:04.662Z,9.50
2019-05-25T22:35:36.428Z,9.85
2019-05-25T22:38:07.848Z,10.13
2019-05-25T22:40:39.406Z,10.08
2019-05-25T22:43:10.740Z,9.55
2019-05-25T22:45:42.172Z,9.73
2019-05-25T22:48:13.551Z,9.15
2019-05-25T22:50:46.049Z,9.65
2019-05-25T22:53:17.574Z,8.83
2019-05-25T22:55:49.065Z,9.98
2019-05-25T22:58:20.628Z,10.35
2019-05-25T23:00:52.151Z,10.23
2019-05-25T23:03:24.632Z,11.08
2019-05-25T23:05:55.952Z,11.18
2019-05-25T23:08:27.539Z,10.85
2019-05-25T23:10:58.909Z,12.80
2019-05-25T23:13:30.214Z,10.08
2019-05-25T23:16:01.713Z,9.40
2019-05-25T23:18:33.188Z,10.30
2019-05-25T23:21:05.019Z,9.95
2019-05-25T23:23:36.486Z,9.83
2019-05-25T23:26:08.067Z,10.03
2019-05-25T23:28:40.240Z,9.53
2019-05-25T23:31:12.036Z,10.70
2019-05-25T23:33:43.659Z,9.65
2019-05-25T23:36:15.308Z,10.10
2019-05-25T23:38:46.901Z,10.18
2019-05-25T23:41:18.423Z,9.80
2019-05-25T23:43:52.523Z,10.55
2019-05-25T23:46:24.167Z,10.60
2019-05-25T23:48:55.533Z,10.13
2019-05-25T23:51:26.882Z,10.15
2019-05-25T23:53:58.245Z,9.90
2019-05-25T23:56:29.613Z,10.30
2019-05-25T23:59:01.187Z,10.58
